Paulick — FGF3493 — position and weather

sailwx.info

Track history (hours):
 
Tides and Currents Weather Stations Pressure Air Temp Water Temp Dewpoint Dewpoint Depression Visibility Wind Speed Wind Dir Waves Ship Positions

Paulick

Last reported at 2017-Oct-08 17:09 UTC. Time now 2017-Nov-19 02:49 UTC.
Position N 48°35' W 002°35'.
Warning: this ship's position is 41 days out of date.

Length 10 m.

Type: Sailing vessel. MMSI: 227712460.

Date/timePositionNaut miles runAvg speedWind from/ knotsBaromVisibWave heightAir tempDewpointWater temp
2017-Oct-08 17:09N 48°35' W 002°35'1 5.5
2017-Oct-08 16:58N 48°35' W 002°36'9 4.5
2017-Oct-08 14:55N 48°39' W 002°49'0 0.0
2017-Oct-08 12:13N 48°39' W 002°49'0 0.0
2017-Oct-08 11:51N 48°39' W 002°49'1 2.7
2017-Oct-08 11:20N 48°38' W 002°48'1 3.4
2017-Oct-08 11:00N 48°39' W 002°49'0 0.4
2017-Oct-08 10:15N 48°39' W 002°49'10 0.4
2017-Oct-07 10:12N 48°35' W 002°35'1 4.1
2017-Oct-07 09:58N 48°36' W 002°36'2 3.9
2017-Oct-07 09:30N 48°38' W 002°34'2 3.9
2017-Oct-07 09:00N 48°38' W 002°31'4 5.9
2017-Oct-07 08:24N 48°36' W 002°34'1 1.4
2017-Oct-07 08:00N 48°36' W 002°35'  
Track history (hours):
 
Tides and Currents Weather Stations Pressure Air Temp Water Temp Dewpoint Dewpoint Depression Visibility Wind Speed Wind Dir Waves Ship Positions

Paulick

Last reported at 2017-Oct-08 17:09 UTC. Time now 2017-Nov-19 02:49 UTC.
Position N 48°35' W 002°35'.
Warning: this ship's position is 41 days out of date.

Length 10 m.

Type: Sailing vessel. MMSI: 227712460.

Date/timePositionNaut miles runAvg speedWind from/ knotsBaromVisibWave heightAir tempDewpointWater temp
2017-Oct-08 17:09N 48°35' W 002°35'1 5.5
2017-Oct-08 16:58N 48°35' W 002°36'9 4.5
2017-Oct-08 14:55N 48°39' W 002°49'0 0.0
2017-Oct-08 12:13N 48°39' W 002°49'0 0.0
2017-Oct-08 11:51N 48°39' W 002°49'1 2.7
2017-Oct-08 11:20N 48°38' W 002°48'1 3.4
2017-Oct-08 11:00N 48°39' W 002°49'0 0.4
2017-Oct-08 10:15N 48°39' W 002°49'10 0.4
2017-Oct-07 10:12N 48°35' W 002°35'1 4.1
2017-Oct-07 09:58N 48°36' W 002°36'2 3.9
2017-Oct-07 09:30N 48°38' W 002°34'2 3.9
2017-Oct-07 09:00N 48°38' W 002°31'4 5.9
2017-Oct-07 08:24N 48°36' W 002°34'1 1.4
2017-Oct-07 08:00N 48°36' W 002°35'  

Dump ship's entire track history